Terminal Aerodrome Forecast
Issued by NWS Sterling, VA

Current Version | Previous Version | Graphics & Text | Print | Product List | Glossary On
Versions: 1 2 3 4 5 6 7 8 9 10 11 12 13 14
000
FTUS41 KLWX 281721
TAFMRB
TAF
KMRB 281721Z 2818/2918 VRB04KT P6SM SKC
     FM290600 VRB03KT 3SM BR SKC
     FM290900 00000KT 2SM BR SKC
     FM291200 00000KT P6SM FEW070 SCT110=

USA.gov is the U.S. government's official web portal to all federal, state and local government web resources and services.